sensor_id;sensor_type;location;lat;lon;timestamp;P1;durP1;ratioP1;P2;durP2;ratioP2
2462;SDS011;1243;54.298;10.172;2023-02-18T00:01:01;23.70;;;4.90;;
2462;SDS011;1243;54.298;10.172;2023-02-18T00:03:28;11.80;;;4.10;;
2462;SDS011;1243;54.298;10.172;2023-02-18T00:05:54;12.40;;;4.43;;
2462;SDS011;1243;54.298;10.172;2023-02-18T00:08:20;9.47;;;3.53;;
2462;SDS011;1243;54.298;10.172;2023-02-18T00:10:48;20.10;;;5.73;;
2462;SDS011;1243;54.298;10.172;2023-02-18T00:13:13;9.37;;;3.03;;
2462;SDS011;1243;54.298;10.172;2023-02-18T00:15:39;23.10;;;4.80;;
2462;SDS011;1243;54.298;10.172;2023-02-18T00:18:05;17.10;;;4.60;;
2462;SDS011;1243;54.298;10.172;2023-02-18T00:20:31;18.13;;;3.43;;
2462;SDS011;1243;54.298;10.172;2023-02-18T00:23:00;12.57;;;5.30;;
2462;SDS011;1243;54.298;10.172;2023-02-18T00:25:27;21.90;;;4.37;;
2462;SDS011;1243;54.298;10.172;2023-02-18T00:27:52;11.00;;;3.00;;
2462;SDS011;1243;54.298;10.172;2023-02-18T00:30:18;31.83;;;4.53;;
2462;SDS011;1243;54.298;10.172;2023-02-18T00:32:44;24.57;;;4.10;;
2462;SDS011;1243;54.298;10.172;2023-02-18T00:35:10;10.83;;;4.70;;
2462;SDS011;1243;54.298;10.172;2023-02-18T00:37:35;15.13;;;3.30;;
2462;SDS011;1243;54.298;10.172;2023-02-18T00:40:01;8.77;;;3.90;;
2462;SDS011;1243;54.298;10.172;2023-02-18T00:42:27;22.03;;;5.30;;
2462;SDS011;1243;54.298;10.172;2023-02-18T00:44:53;12.13;;;3.70;;
2462;SDS011;1243;54.298;10.172;2023-02-18T00:47:19;14.37;;;2.97;;
2462;SDS011;1243;54.298;10.172;2023-02-18T00:49:44;18.30;;;4.50;;
2462;SDS011;1243;54.298;10.172;2023-02-18T00:52:10;28.93;;;4.30;;
2462;SDS011;1243;54.298;10.172;2023-02-18T00:54:36;22.37;;;4.10;;
2462;SDS011;1243;54.298;10.172;2023-02-18T00:57:01;13.93;;;4.10;;
2462;SDS011;1243;54.298;10.172;2023-02-18T00:59:27;23.37;;;5.00;;
2462;SDS011;1243;54.298;10.172;2023-02-18T01:01:53;7.10;;;3.10;;
2462;SDS011;1243;54.298;10.172;2023-02-18T01:04:18;22.93;;;5.13;;
2462;SDS011;1243;54.298;10.172;2023-02-18T01:06:44;16.40;;;4.03;;
2462;SDS011;1243;54.298;10.172;2023-02-18T01:09:10;21.83;;;3.70;;
2462;SDS011;1243;54.298;10.172;2023-02-18T01:11:36;13.20;;;3.70;;
2462;SDS011;1243;54.298;10.172;2023-02-18T01:14:01;14.93;;;6.43;;
2462;SDS011;1243;54.298;10.172;2023-02-18T01:16:27;21.80;;;5.30;;
2462;SDS011;1243;54.298;10.172;2023-02-18T01:18:53;12.57;;;4.87;;
2462;SDS011;1243;54.298;10.172;2023-02-18T01:21:19;18.50;;;4.00;;
2462;SDS011;1243;54.298;10.172;2023-02-18T01:23:45;19.70;;;4.57;;
2462;SDS011;1243;54.298;10.172;2023-02-18T01:26:10;20.13;;;4.13;;
2462;SDS011;1243;54.298;10.172;2023-02-18T01:28:36;10.10;;;3.43;;
2462;SDS011;1243;54.298;10.172;2023-02-18T01:31:05;17.73;;;4.47;;
2462;SDS011;1243;54.298;10.172;2023-02-18T01:33:34;14.70;;;3.20;;
2462;SDS011;1243;54.298;10.172;2023-02-18T01:36:00;20.63;;;5.10;;
2462;SDS011;1243;54.298;10.172;2023-02-18T01:38:26;15.27;;;4.57;;
2462;SDS011;1243;54.298;10.172;2023-02-18T01:40:52;11.83;;;3.23;;
2462;SDS011;1243;54.298;10.172;2023-02-18T01:43:18;9.43;;;4.53;;
2462;SDS011;1243;54.298;10.172;2023-02-18T01:48:25;19.00;;;3.90;;
2462;SDS011;1243;54.298;10.172;2023-02-18T01:51:09;9.03;;;3.60;;
2462;SDS011;1243;54.298;10.172;2023-02-18T01:56:27;13.33;;;3.77;;
2462;SDS011;1243;54.298;10.172;2023-02-18T01:59:01;14.43;;;4.40;;
2462;SDS011;1243;54.298;10.172;2023-02-18T02:01:29;15.33;;;4.37;;
2462;SDS011;1243;54.298;10.172;2023-02-18T02:03:56;15.73;;;3.70;;
2462;SDS011;1243;54.298;10.172;2023-02-18T02:06:22;12.93;;;2.63;;
2462;SDS011;1243;54.298;10.172;2023-02-18T02:08:48;17.50;;;3.80;;
2462;SDS011;1243;54.298;10.172;2023-02-18T02:11:20;11.20;;;2.70;;
2462;SDS011;1243;54.298;10.172;2023-02-18T02:17:03;15.33;;;3.40;;
2462;SDS011;1243;54.298;10.172;2023-02-18T02:22:34;13.00;;;4.13;;
2462;SDS011;1243;54.298;10.172;2023-02-18T02:31:15;13.73;;;3.27;;
2462;SDS011;1243;54.298;10.172;2023-02-18T02:39:33;14.00;;;4.67;;
2462;SDS011;1243;54.298;10.172;2023-02-18T02:45:21;9.80;;;2.27;;
2462;SDS011;1243;54.298;10.172;2023-02-18T02:47:50;16.97;;;3.77;;
2462;SDS011;1243;54.298;10.172;2023-02-18T02:53:13;17.67;;;3.53;;
2462;SDS011;1243;54.298;10.172;2023-02-18T02:55:44;23.60;;;5.50;;
2462;SDS011;1243;54.298;10.172;2023-02-18T02:58:13;15.97;;;3.37;;
2462;SDS011;1243;54.298;10.172;2023-02-18T03:17:30;18.50;;;4.10;;
2462;SDS011;1243;54.298;10.172;2023-02-18T03:20:09;22.30;;;3.40;;
2462;SDS011;1243;54.298;10.172;2023-02-18T03:22:44;11.73;;;3.20;;
2462;SDS011;1243;54.298;10.172;2023-02-18T03:25:12;8.13;;;3.03;;
2462;SDS011;1243;54.298;10.172;2023-02-18T03:27:42;15.87;;;3.90;;
2462;SDS011;1243;54.298;10.172;2023-02-18T03:30:15;17.43;;;4.43;;
2462;SDS011;1243;54.298;10.172;2023-02-18T03:33:03;15.37;;;3.27;;
2462;SDS011;1243;54.298;10.172;2023-02-18T03:35:32;18.13;;;3.67;;
2462;SDS011;1243;54.298;10.172;2023-02-18T03:38:02;13.67;;;3.47;;
2462;SDS011;1243;54.298;10.172;2023-02-18T03:40:36;13.53;;;3.83;;
2462;SDS011;1243;54.298;10.172;2023-02-18T03:43:02;8.57;;;3.23;;
2462;SDS011;1243;54.298;10.172;2023-02-18T03:45:28;14.83;;;3.50;;
2462;SDS011;1243;54.298;10.172;2023-02-18T03:47:54;11.67;;;3.03;;
2462;SDS011;1243;54.298;10.172;2023-02-18T03:50:20;14.53;;;4.10;;
2462;SDS011;1243;54.298;10.172;2023-02-18T03:52:46;16.90;;;3.70;;
2462;SDS011;1243;54.298;10.172;2023-02-18T03:55:12;10.97;;;3.60;;
2462;SDS011;1243;54.298;10.172;2023-02-18T03:57:38;13.93;;;3.10;;
2462;SDS011;1243;54.298;10.172;2023-02-18T04:00:04;14.77;;;3.80;;
2462;SDS011;1243;54.298;10.172;2023-02-18T04:02:31;11.07;;;3.30;;
2462;SDS011;1243;54.298;10.172;2023-02-18T04:04:57;17.17;;;3.67;;
2462;SDS011;1243;54.298;10.172;2023-02-18T04:07:22;23.13;;;4.70;;
2462;SDS011;1243;54.298;10.172;2023-02-18T04:09:48;16.70;;;4.30;;
2462;SDS011;1243;54.298;10.172;2023-02-18T04:12:14;18.90;;;3.43;;
2462;SDS011;1243;54.298;10.172;2023-02-18T04:14:39;10.87;;;3.20;;
2462;SDS011;1243;54.298;10.172;2023-02-18T04:17:05;9.03;;;3.83;;
2462;SDS011;1243;54.298;10.172;2023-02-18T04:19:31;9.20;;;3.53;;
2462;SDS011;1243;54.298;10.172;2023-02-18T04:21:57;8.27;;;2.73;;
2462;SDS011;1243;54.298;10.172;2023-02-18T04:24:22;18.37;;;4.40;;
2462;SDS011;1243;54.298;10.172;2023-02-18T04:26:48;14.17;;;3.40;;
2462;SDS011;1243;54.298;10.172;2023-02-18T04:29:14;16.47;;;2.87;;
2462;SDS011;1243;54.298;10.172;2023-02-18T04:31:39;8.43;;;3.07;;
2462;SDS011;1243;54.298;10.172;2023-02-18T04:34:05;8.60;;;3.17;;
2462;SDS011;1243;54.298;10.172;2023-02-18T04:36:32;18.03;;;4.67;;
2462;SDS011;1243;54.298;10.172;2023-02-18T04:38:57;21.50;;;4.03;;
2462;SDS011;1243;54.298;10.172;2023-02-18T04:41:23;10.30;;;3.37;;
2462;SDS011;1243;54.298;10.172;2023-02-18T04:43:49;6.70;;;2.40;;
2462;SDS011;1243;54.298;10.172;2023-02-18T04:46:15;9.40;;;3.60;;
2462;SDS011;1243;54.298;10.172;2023-02-18T04:48:41;11.87;;;3.27;;
2462;SDS011;1243;54.298;10.172;2023-02-18T04:51:10;12.53;;;4.40;;
2462;SDS011;1243;54.298;10.172;2023-02-18T04:53:35;8.93;;;3.10;;
2462;SDS011;1243;54.298;10.172;2023-02-18T04:56:01;12.57;;;3.70;;
2462;SDS011;1243;54.298;10.172;2023-02-18T04:58:27;8.10;;;2.63;;
2462;SDS011;1243;54.298;10.172;2023-02-18T05:00:53;10.30;;;3.90;;
2462;SDS011;1243;54.298;10.172;2023-02-18T05:03:23;5.33;;;2.67;;
2462;SDS011;1243;54.298;10.172;2023-02-18T05:05:49;8.43;;;2.80;;
2462;SDS011;1243;54.298;10.172;2023-02-18T05:08:15;14.93;;;3.53;;
2462;SDS011;1243;54.298;10.172;2023-02-18T05:10:40;11.77;;;5.70;;
2462;SDS011;1243;54.298;10.172;2023-02-18T05:13:06;22.57;;;2.80;;
2462;SDS011;1243;54.298;10.172;2023-02-18T05:15:32;11.93;;;2.90;;
2462;SDS011;1243;54.298;10.172;2023-02-18T05:17:57;2.23;;;2.13;;
2462;SDS011;1243;54.298;10.172;2023-02-18T05:20:23;13.40;;;3.87;;
2462;SDS011;1243;54.298;10.172;2023-02-18T05:22:49;6.23;;;2.80;;
2462;SDS011;1243;54.298;10.172;2023-02-18T05:25:14;14.10;;;3.00;;
2462;SDS011;1243;54.298;10.172;2023-02-18T05:27:40;9.90;;;4.20;;
2462;SDS011;1243;54.298;10.172;2023-02-18T05:30:06;6.10;;;2.30;;
2462;SDS011;1243;54.298;10.172;2023-02-18T05:32:32;5.47;;;2.43;;
2462;SDS011;1243;54.298;10.172;2023-02-18T05:34:58;6.73;;;2.60;;
2462;SDS011;1243;54.298;10.172;2023-02-18T05:37:23;5.13;;;1.90;;
2462;SDS011;1243;54.298;10.172;2023-02-18T05:39:49;3.27;;;2.30;;
2462;SDS011;1243;54.298;10.172;2023-02-18T05:42:15;11.73;;;2.57;;
2462;SDS011;1243;54.298;10.172;2023-02-18T05:44:41;4.37;;;1.80;;
2462;SDS011;1243;54.298;10.172;2023-02-18T05:47:07;5.53;;;1.57;;
2462;SDS011;1243;54.298;10.172;2023-02-18T05:49:35;11.30;;;2.53;;
2462;SDS011;1243;54.298;10.172;2023-02-18T05:52:01;4.27;;;2.03;;
2462;SDS011;1243;54.298;10.172;2023-02-18T05:54:28;4.40;;;2.50;;
2462;SDS011;1243;54.298;10.172;2023-02-18T05:56:55;3.87;;;1.77;;
2462;SDS011;1243;54.298;10.172;2023-02-18T05:59:21;9.13;;;2.27;;
2462;SDS011;1243;54.298;10.172;2023-02-18T06:01:47;10.57;;;2.27;;
2462;SDS011;1243;54.298;10.172;2023-02-18T06:04:13;8.53;;;2.20;;
2462;SDS011;1243;54.298;10.172;2023-02-18T06:06:39;2.50;;;1.67;;
2462;SDS011;1243;54.298;10.172;2023-02-18T06:09:05;11.87;;;2.40;;
2462;SDS011;1243;54.298;10.172;2023-02-18T06:11:31;7.00;;;2.60;;
2462;SDS011;1243;54.298;10.172;2023-02-18T06:13:57;2.53;;;1.67;;
2462;SDS011;1243;54.298;10.172;2023-02-18T06:16:23;8.13;;;2.30;;
2462;SDS011;1243;54.298;10.172;2023-02-18T06:18:49;7.70;;;3.17;;
2462;SDS011;1243;54.298;10.172;2023-02-18T06:21:15;4.70;;;2.27;;
2462;SDS011;1243;54.298;10.172;2023-02-18T06:23:41;4.53;;;2.27;;
2462;SDS011;1243;54.298;10.172;2023-02-18T06:26:07;2.73;;;2.10;;
2462;SDS011;1243;54.298;10.172;2023-02-18T06:28:33;5.13;;;2.00;;
2462;SDS011;1243;54.298;10.172;2023-02-18T06:30:58;5.70;;;1.90;;
2462;SDS011;1243;54.298;10.172;2023-02-18T06:33:24;11.20;;;2.63;;
2462;SDS011;1243;54.298;10.172;2023-02-18T06:35:57;5.37;;;2.43;;
2462;SDS011;1243;54.298;10.172;2023-02-18T06:38:24;10.93;;;2.13;;
2462;SDS011;1243;54.298;10.172;2023-02-18T06:40:51;9.60;;;3.27;;
2462;SDS011;1243;54.298;10.172;2023-02-18T06:43:17;5.23;;;2.20;;
2462;SDS011;1243;54.298;10.172;2023-02-18T06:45:44;7.17;;;2.57;;
2462;SDS011;1243;54.298;10.172;2023-02-18T06:48:10;1.97;;;1.77;;
2462;SDS011;1243;54.298;10.172;2023-02-18T06:50:37;4.40;;;1.93;;
2462;SDS011;1243;54.298;10.172;2023-02-18T06:53:07;15.10;;;2.57;;
2462;SDS011;1243;54.298;10.172;2023-02-18T06:55:33;1.47;;;1.37;;
2462;SDS011;1243;54.298;10.172;2023-02-18T06:57:58;2.47;;;1.50;;
2462;SDS011;1243;54.298;10.172;2023-02-18T07:00:24;10.33;;;2.00;;
2462;SDS011;1243;54.298;10.172;2023-02-18T07:02:50;8.57;;;1.93;;
2462;SDS011;1243;54.298;10.172;2023-02-18T07:05:15;3.17;;;2.13;;
2462;SDS011;1243;54.298;10.172;2023-02-18T07:07:41;3.87;;;2.10;;
2462;SDS011;1243;54.298;10.172;2023-02-18T07:10:07;2.00;;;1.40;;
2462;SDS011;1243;54.298;10.172;2023-02-18T07:12:34;2.50;;;1.40;;
2462;SDS011;1243;54.298;10.172;2023-02-18T07:14:59;2.20;;;1.57;;
2462;SDS011;1243;54.298;10.172;2023-02-18T07:17:25;2.73;;;1.80;;
2462;SDS011;1243;54.298;10.172;2023-02-18T07:19:52;1.50;;;1.40;;
2462;SDS011;1243;54.298;10.172;2023-02-18T07:22:19;1.70;;;1.60;;
2462;SDS011;1243;54.298;10.172;2023-02-18T07:24:49;3.27;;;1.53;;
2462;SDS011;1243;54.298;10.172;2023-02-18T07:27:16;2.93;;;2.20;;
2462;SDS011;1243;54.298;10.172;2023-02-18T07:29:42;2.10;;;1.37;;
2462;SDS011;1243;54.298;10.172;2023-02-18T07:32:08;7.67;;;2.00;;
2462;SDS011;1243;54.298;10.172;2023-02-18T07:34:36;2.63;;;1.87;;
2462;SDS011;1243;54.298;10.172;2023-02-18T07:37:02;2.93;;;1.60;;
2462;SDS011;1243;54.298;10.172;2023-02-18T07:39:33;3.10;;;1.73;;
2462;SDS011;1243;54.298;10.172;2023-02-18T07:42:11;3.43;;;1.83;;
2462;SDS011;1243;54.298;10.172;2023-02-18T07:44:38;1.60;;;1.50;;
2462;SDS011;1243;54.298;10.172;2023-02-18T07:47:04;3.40;;;1.80;;
2462;SDS011;1243;54.298;10.172;2023-02-18T07:49:31;2.13;;;1.93;;
2462;SDS011;1243;54.298;10.172;2023-02-18T07:51:57;2.27;;;1.53;;
2462;SDS011;1243;54.298;10.172;2023-02-18T07:54:23;1.40;;;1.30;;
2462;SDS011;1243;54.298;10.172;2023-02-18T07:56:49;8.80;;;2.00;;
2462;SDS011;1243;54.298;10.172;2023-02-18T07:59:15;1.60;;;1.50;;
2462;SDS011;1243;54.298;10.172;2023-02-18T08:01:41;1.70;;;1.60;;
2462;SDS011;1243;54.298;10.172;2023-02-18T08:04:07;3.27;;;1.97;;
2462;SDS011;1243;54.298;10.172;2023-02-18T08:06:33;1.30;;;1.20;;
2462;SDS011;1243;54.298;10.172;2023-02-18T08:09:03;2.80;;;1.50;;
2462;SDS011;1243;54.298;10.172;2023-02-18T08:11:29;2.30;;;2.03;;
2462;SDS011;1243;54.298;10.172;2023-02-18T08:13:55;5.10;;;1.57;;
2462;SDS011;1243;54.298;10.172;2023-02-18T08:16:21;3.97;;;1.60;;
2462;SDS011;1243;54.298;10.172;2023-02-18T08:18:47;1.53;;;1.43;;
2462;SDS011;1243;54.298;10.172;2023-02-18T08:21:14;2.13;;;2.00;;
2462;SDS011;1243;54.298;10.172;2023-02-18T08:23:40;2.40;;;1.87;;
2462;SDS011;1243;54.298;10.172;2023-02-18T08:26:06;4.17;;;1.93;;
2462;SDS011;1243;54.298;10.172;2023-02-18T08:28:32;2.07;;;1.73;;
2462;SDS011;1243;54.298;10.172;2023-02-18T08:30:58;3.73;;;1.60;;
2462;SDS011;1243;54.298;10.172;2023-02-18T08:33:24;3.60;;;1.90;;
2462;SDS011;1243;54.298;10.172;2023-02-18T08:35:51;1.73;;;1.60;;
2462;SDS011;1243;54.298;10.172;2023-02-18T08:38:18;2.20;;;1.47;;
2462;SDS011;1243;54.298;10.172;2023-02-18T08:40:45;2.97;;;1.53;;
2462;SDS011;1243;54.298;10.172;2023-02-18T08:43:11;5.33;;;2.13;;
2462;SDS011;1243;54.298;10.172;2023-02-18T08:45:38;3.20;;;1.80;;
2462;SDS011;1243;54.298;10.172;2023-02-18T08:48:05;3.50;;;1.70;;
2462;SDS011;1243;54.298;10.172;2023-02-18T08:50:32;1.97;;;1.87;;
2462;SDS011;1243;54.298;10.172;2023-02-18T08:52:58;4.77;;;1.60;;
2462;SDS011;1243;54.298;10.172;2023-02-18T08:55:27;2.90;;;1.93;;
2462;SDS011;1243;54.298;10.172;2023-02-18T08:57:57;3.07;;;1.70;;
2462;SDS011;1243;54.298;10.172;2023-02-18T09:00:23;2.13;;;1.73;;
2462;SDS011;1243;54.298;10.172;2023-02-18T09:02:50;5.13;;;2.13;;
2462;SDS011;1243;54.298;10.172;2023-02-18T09:05:16;3.50;;;1.70;;
2462;SDS011;1243;54.298;10.172;2023-02-18T09:07:42;6.50;;;2.37;;
2462;SDS011;1243;54.298;10.172;2023-02-18T09:10:08;3.70;;;1.70;;
2462;SDS011;1243;54.298;10.172;2023-02-18T09:12:35;9.30;;;2.20;;
2462;SDS011;1243;54.298;10.172;2023-02-18T09:15:01;2.70;;;1.90;;
2462;SDS011;1243;54.298;10.172;2023-02-18T09:17:27;3.10;;;2.00;;
2462;SDS011;1243;54.298;10.172;2023-02-18T09:19:53;2.20;;;2.00;;
2462;SDS011;1243;54.298;10.172;2023-02-18T09:22:19;1.87;;;1.77;;
2462;SDS011;1243;54.298;10.172;2023-02-18T09:24:44;5.03;;;2.20;;
2462;SDS011;1243;54.298;10.172;2023-02-18T09:27:10;4.03;;;2.10;;
2462;SDS011;1243;54.298;10.172;2023-02-18T09:29:37;4.17;;;1.63;;
2462;SDS011;1243;54.298;10.172;2023-02-18T09:32:03;4.07;;;1.80;;
2462;SDS011;1243;54.298;10.172;2023-02-18T09:34:31;3.30;;;1.90;;
2462;SDS011;1243;54.298;10.172;2023-02-18T09:36:57;2.13;;;2.03;;
2462;SDS011;1243;54.298;10.172;2023-02-18T09:39:23;1.67;;;1.57;;
2462;SDS011;1243;54.298;10.172;2023-02-18T09:41:50;5.93;;;1.50;;
2462;SDS011;1243;54.298;10.172;2023-02-18T09:44:29;3.87;;;2.43;;
2462;SDS011;1243;54.298;10.172;2023-02-18T09:47:02;2.10;;;2.00;;
2462;SDS011;1243;54.298;10.172;2023-02-18T09:49:37;2.47;;;1.90;;
2462;SDS011;1243;54.298;10.172;2023-02-18T09:52:18;4.70;;;2.00;;
2462;SDS011;1243;54.298;10.172;2023-02-18T09:54:48;5.93;;;1.93;;
2462;SDS011;1243;54.298;10.172;2023-02-18T09:57:17;3.47;;;1.87;;
2462;SDS011;1243;54.298;10.172;2023-02-18T10:00:24;2.20;;;1.80;;
2462;SDS011;1243;54.298;10.172;2023-02-18T10:03:01;2.20;;;1.60;;
2462;SDS011;1243;54.298;10.172;2023-02-18T10:05:32;1.83;;;1.50;;
2462;SDS011;1243;54.298;10.172;2023-02-18T10:08:06;2.70;;;1.40;;
2462;SDS011;1243;54.298;10.172;2023-02-18T10:10:48;2.47;;;1.50;;
2462;SDS011;1243;54.298;10.172;2023-02-18T10:13:15;1.63;;;1.40;;
2462;SDS011;1243;54.298;10.172;2023-02-18T10:15:45;1.73;;;1.60;;
2462;SDS011;1243;54.298;10.172;2023-02-18T10:20:55;2.33;;;1.50;;
2462;SDS011;1243;54.298;10.172;2023-02-18T10:23:34;1.97;;;1.47;;
2462;SDS011;1243;54.298;10.172;2023-02-18T10:26:04;1.93;;;1.83;;
2462;SDS011;1243;54.298;10.172;2023-02-18T10:28:34;2.97;;;1.93;;
2462;SDS011;1243;54.298;10.172;2023-02-18T10:31:06;2.30;;;1.53;;
2462;SDS011;1243;54.298;10.172;2023-02-18T10:36:31;1.60;;;1.50;;
2462;SDS011;1243;54.298;10.172;2023-02-18T10:45:10;1.70;;;1.60;;
2462;SDS011;1243;54.298;10.172;2023-02-18T10:47:57;1.93;;;1.40;;
2462;SDS011;1243;54.298;10.172;2023-02-18T10:50:41;1.53;;;1.43;;
2462;SDS011;1243;54.298;10.172;2023-02-18T10:53:13;1.83;;;1.73;;
2462;SDS011;1243;54.298;10.172;2023-02-18T10:55:54;1.37;;;1.27;;
2462;SDS011;1243;54.298;10.172;2023-02-18T11:01:03;1.47;;;1.37;;
2462;SDS011;1243;54.298;10.172;2023-02-18T11:03:41;1.40;;;1.30;;
2462;SDS011;1243;54.298;10.172;2023-02-18T11:09:03;1.57;;;1.47;;
2462;SDS011;1243;54.298;10.172;2023-02-18T11:11:31;1.77;;;1.30;;
2462;SDS011;1243;54.298;10.172;2023-02-18T11:14:01;1.33;;;1.23;;
2462;SDS011;1243;54.298;10.172;2023-02-18T11:16:36;1.47;;;1.33;;
2462;SDS011;1243;54.298;10.172;2023-02-18T11:19:04;1.37;;;1.27;;
2462;SDS011;1243;54.298;10.172;2023-02-18T11:21:50;2.80;;;1.70;;
2462;SDS011;1243;54.298;10.172;2023-02-18T11:24:16;2.53;;;2.33;;
2462;SDS011;1243;54.298;10.172;2023-02-18T11:26:44;2.40;;;2.30;;
2462;SDS011;1243;54.298;10.172;2023-02-18T11:29:19;2.37;;;2.17;;
2462;SDS011;1243;54.298;10.172;2023-02-18T11:31:52;2.23;;;1.87;;
2462;SDS011;1243;54.298;10.172;2023-02-18T11:34:21;2.53;;;2.33;;
2462;SDS011;1243;54.298;10.172;2023-02-18T11:37:06;4.63;;;2.17;;
2462;SDS011;1243;54.298;10.172;2023-02-18T11:39:34;2.00;;;1.90;;
2462;SDS011;1243;54.298;10.172;2023-02-18T11:42:01;2.47;;;2.27;;
2462;SDS011;1243;54.298;10.172;2023-02-18T11:44:30;2.03;;;1.83;;
2462;SDS011;1243;54.298;10.172;2023-02-18T11:49:42;3.53;;;3.23;;
2462;SDS011;1243;54.298;10.172;2023-02-18T11:52:32;2.50;;;2.30;;
2462;SDS011;1243;54.298;10.172;2023-02-18T11:57:37;2.10;;;2.00;;
2462;SDS011;1243;54.298;10.172;2023-02-18T12:00:14;2.13;;;2.03;;
2462;SDS011;1243;54.298;10.172;2023-02-18T12:02:50;1.97;;;1.87;;
2462;SDS011;1243;54.298;10.172;2023-02-18T12:05:23;1.97;;;1.77;;
2462;SDS011;1243;54.298;10.172;2023-02-18T12:08:00;1.60;;;1.50;;
2462;SDS011;1243;54.298;10.172;2023-02-18T12:10:52;2.17;;;1.33;;
2462;SDS011;1243;54.298;10.172;2023-02-18T12:13:41;1.80;;;1.70;;
2462;SDS011;1243;54.298;10.172;2023-02-18T12:16:26;1.57;;;1.47;;
2462;SDS011;1243;54.298;10.172;2023-02-18T12:27:41;1.30;;;1.20;;
2462;SDS011;1243;54.298;10.172;2023-02-18T12:36:39;1.50;;;1.40;;
2462;SDS011;1243;54.298;10.172;2023-02-18T12:57:08;5.40;;;2.03;;
2462;SDS011;1243;54.298;10.172;2023-02-18T13:08:17;1.93;;;1.83;;
2462;SDS011;1243;54.298;10.172;2023-02-18T13:14:17;2.90;;;2.50;;
2462;SDS011;1243;54.298;10.172;2023-02-18T13:16:45;3.20;;;2.27;;
2462;SDS011;1243;54.298;10.172;2023-02-18T13:19:25;2.67;;;2.47;;
2462;SDS011;1243;54.298;10.172;2023-02-18T13:21:57;3.63;;;2.10;;
2462;SDS011;1243;54.298;10.172;2023-02-18T13:24:29;3.10;;;1.57;;
2462;SDS011;1243;54.298;10.172;2023-02-18T13:32:34;2.03;;;1.60;;
2462;SDS011;1243;54.298;10.172;2023-02-18T13:36:42;1.90;;;1.80;;
2462;SDS011;1243;54.298;10.172;2023-02-18T13:39:17;2.30;;;2.20;;
2462;SDS011;1243;54.298;10.172;2023-02-18T13:41:46;1.90;;;1.80;;
2462;SDS011;1243;54.298;10.172;2023-02-18T13:46:54;2.10;;;1.90;;
2462;SDS011;1243;54.298;10.172;2023-02-18T13:49:42;1.90;;;1.80;;
2462;SDS011;1243;54.298;10.172;2023-02-18T13:52:14;1.80;;;1.70;;
2462;SDS011;1243;54.298;10.172;2023-02-18T13:54:44;1.93;;;1.60;;
2462;SDS011;1243;54.298;10.172;2023-02-18T13:57:18;2.03;;;1.93;;
2462;SDS011;1243;54.298;10.172;2023-02-18T13:59:54;1.60;;;1.50;;
2462;SDS011;1243;54.298;10.172;2023-02-18T14:04:49;1.60;;;1.50;;
2462;SDS011;1243;54.298;10.172;2023-02-18T14:09:49;2.67;;;1.50;;
2462;SDS011;1243;54.298;10.172;2023-02-18T14:14:51;1.77;;;1.67;;
2462;SDS011;1243;54.298;10.172;2023-02-18T14:22:32;1.50;;;1.40;;
2462;SDS011;1243;54.298;10.172;2023-02-18T14:27:35;2.33;;;1.70;;
2462;SDS011;1243;54.298;10.172;2023-02-18T14:30:04;1.70;;;1.60;;
2462;SDS011;1243;54.298;10.172;2023-02-18T14:32:39;2.83;;;1.73;;
2462;SDS011;1243;54.298;10.172;2023-02-18T14:35:07;2.53;;;1.87;;
2462;SDS011;1243;54.298;10.172;2023-02-18T14:40:43;1.93;;;1.83;;
2462;SDS011;1243;54.298;10.172;2023-02-18T14:43:19;2.00;;;1.90;;
2462;SDS011;1243;54.298;10.172;2023-02-18T14:51:09;1.93;;;1.83;;
2462;SDS011;1243;54.298;10.172;2023-02-18T14:53:44;1.80;;;1.70;;
2462;SDS011;1243;54.298;10.172;2023-02-18T14:56:12;2.17;;;2.03;;
2462;SDS011;1243;54.298;10.172;2023-02-18T14:58:45;1.97;;;1.80;;
2462;SDS011;1243;54.298;10.172;2023-02-18T15:01:15;2.23;;;2.00;;
2462;SDS011;1243;54.298;10.172;2023-02-18T15:03:44;2.30;;;2.10;;
2462;SDS011;1243;54.298;10.172;2023-02-18T15:08:52;1.70;;;1.60;;
2462;SDS011;1243;54.298;10.172;2023-02-18T15:11:18;2.40;;;1.50;;
2462;SDS011;1243;54.298;10.172;2023-02-18T15:13:48;2.40;;;1.47;;
2462;SDS011;1243;54.298;10.172;2023-02-18T15:16:30;2.53;;;1.60;;
2462;SDS011;1243;54.298;10.172;2023-02-18T15:18:58;3.80;;;1.80;;
2462;SDS011;1243;54.298;10.172;2023-02-18T15:21:40;1.70;;;1.60;;
2462;SDS011;1243;54.298;10.172;2023-02-18T15:26:47;3.40;;;3.10;;
2462;SDS011;1243;54.298;10.172;2023-02-18T15:29:20;2.63;;;2.30;;
2462;SDS011;1243;54.298;10.172;2023-02-18T15:31:48;2.57;;;2.30;;
2462;SDS011;1243;54.298;10.172;2023-02-18T15:34:32;2.17;;;2.07;;
2462;SDS011;1243;54.298;10.172;2023-02-18T15:37:04;2.20;;;2.10;;
2462;SDS011;1243;54.298;10.172;2023-02-18T15:39:32;2.50;;;2.30;;
2462;SDS011;1243;54.298;10.172;2023-02-18T15:42:04;2.00;;;1.90;;
2462;SDS011;1243;54.298;10.172;2023-02-18T15:44:33;2.33;;;2.00;;
2462;SDS011;1243;54.298;10.172;2023-02-18T15:47:01;1.80;;;1.70;;
2462;SDS011;1243;54.298;10.172;2023-02-18T15:49:31;2.37;;;2.27;;
2462;SDS011;1243;54.298;10.172;2023-02-18T15:52:00;2.90;;;2.27;;
2462;SDS011;1243;54.298;10.172;2023-02-18T15:54:28;3.03;;;2.13;;
2462;SDS011;1243;54.298;10.172;2023-02-18T15:56:55;2.50;;;2.30;;
2462;SDS011;1243;54.298;10.172;2023-02-18T15:59:34;2.00;;;1.90;;
2462;SDS011;1243;54.298;10.172;2023-02-18T16:04:33;3.00;;;1.90;;
2462;SDS011;1243;54.298;10.172;2023-02-18T16:07:15;2.43;;;2.23;;
2462;SDS011;1243;54.298;10.172;2023-02-18T16:09:49;5.83;;;2.20;;
2462;SDS011;1243;54.298;10.172;2023-02-18T16:12:30;2.57;;;2.37;;
2462;SDS011;1243;54.298;10.172;2023-02-18T16:14:56;3.20;;;2.90;;
2462;SDS011;1243;54.298;10.172;2023-02-18T16:17:24;2.87;;;2.70;;
2462;SDS011;1243;54.298;10.172;2023-02-18T16:27:45;2.70;;;2.50;;
2462;SDS011;1243;54.298;10.172;2023-02-18T16:30:15;3.07;;;2.87;;
2462;SDS011;1243;54.298;10.172;2023-02-18T16:32:43;3.33;;;3.03;;
2462;SDS011;1243;54.298;10.172;2023-02-18T16:35:10;3.23;;;2.93;;
2462;SDS011;1243;54.298;10.172;2023-02-18T16:37:37;3.47;;;3.27;;
2462;SDS011;1243;54.298;10.172;2023-02-18T16:42:50;3.83;;;3.50;;
2462;SDS011;1243;54.298;10.172;2023-02-18T16:45:16;3.90;;;3.60;;
2462;SDS011;1243;54.298;10.172;2023-02-18T16:47:47;4.17;;;3.80;;
2462;SDS011;1243;54.298;10.172;2023-02-18T16:50:17;4.33;;;3.93;;
2462;SDS011;1243;54.298;10.172;2023-02-18T16:52:45;4.57;;;4.17;;
2462;SDS011;1243;54.298;10.172;2023-02-18T16:55:15;3.90;;;3.60;;
2462;SDS011;1243;54.298;10.172;2023-02-18T16:57:43;4.33;;;3.83;;
2462;SDS011;1243;54.298;10.172;2023-02-18T17:00:09;7.30;;;4.30;;
2462;SDS011;1243;54.298;10.172;2023-02-18T17:02:35;4.03;;;3.73;;
2462;SDS011;1243;54.298;10.172;2023-02-18T17:05:01;4.10;;;3.80;;
2462;SDS011;1243;54.298;10.172;2023-02-18T17:07:27;4.13;;;3.83;;
2462;SDS011;1243;54.298;10.172;2023-02-18T17:09:56;3.83;;;3.53;;
2462;SDS011;1243;54.298;10.172;2023-02-18T17:12:25;3.73;;;3.43;;
2462;SDS011;1243;54.298;10.172;2023-02-18T17:14:51;3.30;;;3.10;;
2462;SDS011;1243;54.298;10.172;2023-02-18T17:17:17;4.17;;;3.80;;
2462;SDS011;1243;54.298;10.172;2023-02-18T17:19:46;3.73;;;3.43;;
2462;SDS011;1243;54.298;10.172;2023-02-18T17:22:12;3.93;;;3.63;;
2462;SDS011;1243;54.298;10.172;2023-02-18T17:24:38;3.07;;;2.90;;
2462;SDS011;1243;54.298;10.172;2023-02-18T17:27:04;3.27;;;3.07;;
2462;SDS011;1243;54.298;10.172;2023-02-18T17:29:30;4.43;;;4.03;;
2462;SDS011;1243;54.298;10.172;2023-02-18T17:31:56;5.70;;;3.03;;
2462;SDS011;1243;54.298;10.172;2023-02-18T17:34:26;3.30;;;3.10;;
2462;SDS011;1243;54.298;10.172;2023-02-18T17:36:54;4.00;;;3.60;;
2462;SDS011;1243;54.298;10.172;2023-02-18T17:39:20;3.70;;;3.50;;
2462;SDS011;1243;54.298;10.172;2023-02-18T17:41:47;3.20;;;3.00;;
2462;SDS011;1243;54.298;10.172;2023-02-18T17:44:16;3.57;;;3.30;;
2462;SDS011;1243;54.298;10.172;2023-02-18T17:46:47;3.90;;;3.60;;
2462;SDS011;1243;54.298;10.172;2023-02-18T17:49:14;4.47;;;3.63;;
2462;SDS011;1243;54.298;10.172;2023-02-18T17:51:41;5.73;;;5.33;;
2462;SDS011;1243;54.298;10.172;2023-02-18T17:54:14;4.37;;;3.97;;